createdAt,value
2018-05-06T00:02:13.529Z,39.07
2018-05-06T00:04:42.849Z,27.73
2018-05-06T00:07:11.939Z,28.97
2018-05-06T00:09:41.092Z,28.97
2018-05-06T00:12:10.843Z,30.30
2018-05-06T00:14:39.930Z,31.47
2018-05-06T00:17:09.204Z,33.93
2018-05-06T00:19:38.484Z,35.57
2018-05-06T00:22:07.583Z,36.07
2018-05-06T00:24:36.693Z,35.80
2018-05-06T00:27:06.003Z,33.03
2018-05-06T00:29:35.903Z,36.47
2018-05-06T00:32:05.532Z,36.60
2018-05-06T00:34:35.561Z,42.10
2018-05-06T00:37:05.844Z,39.57
2018-05-06T00:39:34.997Z,40.23
2018-05-06T00:42:04.115Z,42.57
2018-05-06T00:44:33.252Z,42.30
2018-05-06T00:47:02.332Z,43.07
2018-05-06T00:49:32.321Z,42.73
2018-05-06T00:52:01.563Z,44.27
2018-05-06T00:54:42.191Z,42.40
2018-05-06T00:57:11.680Z,46.13
2018-05-06T00:59:40.923Z,43.97
2018-05-06T01:02:11.829Z,43.67
2018-05-06T01:04:41.069Z,45.83
2018-05-06T01:07:10.395Z,45.93
2018-05-06T01:09:44.917Z,46.03
2018-05-06T01:12:14.703Z,44.70
2018-05-06T01:14:44.574Z,44.53
2018-05-06T01:17:13.696Z,44.53
2018-05-06T01:19:42.858Z,42.80
2018-05-06T01:22:12.411Z,43.47
2018-05-06T01:24:42.386Z,44.70
2018-05-06T01:27:11.574Z,45.40
2018-05-06T01:29:40.756Z,46.13
2018-05-06T01:32:10.005Z,43.47
2018-05-06T01:34:39.097Z,44.47
2018-05-06T01:37:08.214Z,44.47
2018-05-06T01:39:37.377Z,44.63
2018-05-06T01:42:06.589Z,44.43
2018-05-06T01:44:35.683Z,46.37
2018-05-06T01:47:04.835Z,45.10
2018-05-06T01:49:34.007Z,44.97
2018-05-06T01:52:03.086Z,43.77
2018-05-06T01:54:32.303Z,46.33
2018-05-06T01:57:01.550Z,47.87
2018-05-06T01:59:30.698Z,47.67
2018-05-06T02:01:59.794Z,47.83
2018-05-06T02:04:28.923Z,44.43
2018-05-06T02:06:58.135Z,44.43
2018-05-06T02:09:27.281Z,41.93
2018-05-06T02:11:56.506Z,44.97
2018-05-06T02:14:26.089Z,45.97
2018-05-06T02:16:55.286Z,47.27
2018-05-06T02:19:24.471Z,49.33
2018-05-06T02:21:53.753Z,50.00
2018-05-06T02:24:22.834Z,46.63
2018-05-06T02:26:52.867Z,46.60
2018-05-06T02:29:21.940Z,47.93
2018-05-06T02:31:51.347Z,48.00
2018-05-06T02:34:21.366Z,46.07
2018-05-06T02:36:50.502Z,46.17
2018-05-06T02:39:19.745Z,45.53
2018-05-06T02:41:49.802Z,43.80
2018-05-06T02:44:18.976Z,46.00
2018-05-06T02:46:49.112Z,45.07
2018-05-06T02:49:18.228Z,45.03
2018-05-06T02:51:47.533Z,42.30
2018-05-06T02:54:16.820Z,41.43
2018-05-06T02:56:45.916Z,42.40
2018-05-06T02:59:16.048Z,41.07
2018-05-06T03:01:45.609Z,42.13
2018-05-06T03:04:14.792Z,40.37
2018-05-06T03:06:47.510Z,41.80
2018-05-06T03:09:16.742Z,41.20
2018-05-06T03:11:45.925Z,40.60
2018-05-06T03:14:15.023Z,41.20
2018-05-06T03:16:44.642Z,40.40
2018-05-06T03:19:13.890Z,42.77
2018-05-06T03:21:43.107Z,43.80
2018-05-06T03:24:12.181Z,43.40
2018-05-06T03:26:42.535Z,45.23
2018-05-06T03:29:11.707Z,47.03
2018-05-06T03:31:40.845Z,47.03
2018-05-06T03:34:10.847Z,45.10
2018-05-06T03:36:39.994Z,45.07
2018-05-06T03:39:09.127Z,45.57
2018-05-06T03:41:38.878Z,44.40
2018-05-06T03:44:08.218Z,47.40
2018-05-06T03:46:37.361Z,44.67
2018-05-06T03:49:06.746Z,42.67
2018-05-06T03:51:35.870Z,44.10
2018-05-06T03:54:05.792Z,44.97
2018-05-06T03:56:56.471Z,42.33
2018-05-06T03:59:36.845Z,44.27
2018-05-06T04:15:51.096Z,45.43
2018-05-06T04:18:20.982Z,46.73
2018-05-06T04:20:50.207Z,45.80
2018-05-06T04:23:19.447Z,45.77
2018-05-06T04:25:48.601Z,45.83
2018-05-06T04:28:17.720Z,45.63
2018-05-06T04:30:46.998Z,44.93
2018-05-06T04:33:16.884Z,44.77
2018-05-06T04:35:46.010Z,47.73
2018-05-06T04:38:15.187Z,46.50
2018-05-06T04:40:45.109Z,45.63
2018-05-06T04:43:15.016Z,46.17
2018-05-06T04:45:45.029Z,47.80
2018-05-06T04:48:14.134Z,47.13
2018-05-06T04:50:43.273Z,46.87
2018-05-06T04:53:12.360Z,47.97
2018-05-06T04:55:41.672Z,47.83
2018-05-06T04:58:10.758Z,47.60
2018-05-06T05:00:39.926Z,47.20
2018-05-06T05:03:09.003Z,49.30
2018-05-06T05:05:38.157Z,47.40
2018-05-06T05:08:07.294Z,47.23
2018-05-06T05:10:36.478Z,46.50
2018-05-06T05:13:06.401Z,47.00
2018-05-06T05:15:35.566Z,46.00
2018-05-06T05:18:04.699Z,47.60
2018-05-06T05:20:34.350Z,46.87
2018-05-06T05:23:03.399Z,46.67
2018-05-06T05:25:32.524Z,44.53
2018-05-06T05:28:01.648Z,45.20
2018-05-06T05:30:30.956Z,44.83
2018-05-06T05:33:00.078Z,45.07
2018-05-06T05:35:30.051Z,45.73
2018-05-06T05:37:59.172Z,44.70
2018-05-06T05:40:28.537Z,45.17
2018-05-06T05:42:57.708Z,45.57
2018-05-06T05:45:27.954Z,43.53
2018-05-06T05:47:57.157Z,44.97
2018-05-06T05:50:26.347Z,44.43
2018-05-06T05:52:56.160Z,45.13
2018-05-06T05:55:25.357Z,45.10
2018-05-06T05:57:54.425Z,46.60
2018-05-06T06:00:23.522Z,46.10
2018-05-06T06:02:52.785Z,43.17
2018-05-06T06:05:21.919Z,45.33
2018-05-06T06:07:51.219Z,44.17
2018-05-06T06:10:20.522Z,42.17
2018-05-06T06:12:49.645Z,43.50
2018-05-06T06:15:18.727Z,43.30
2018-05-06T06:17:47.980Z,40.80
2018-05-06T06:20:17.179Z,42.33
2018-05-06T06:22:46.569Z,43.17
2018-05-06T06:25:16.659Z,43.23
2018-05-06T06:27:45.883Z,44.57
2018-05-06T06:30:14.968Z,43.37
2018-05-06T06:32:44.854Z,45.00
2018-05-06T06:35:13.996Z,42.80
2018-05-06T06:37:43.721Z,44.00
2018-05-06T06:40:12.866Z,44.63
2018-05-06T06:42:41.974Z,46.00
2018-05-06T06:45:11.941Z,47.27
2018-05-06T06:47:41.085Z,44.47
2018-05-06T06:50:10.425Z,45.47
2018-05-06T06:52:39.502Z,44.83
2018-05-06T06:55:08.760Z,42.97
2018-05-06T06:57:37.859Z,42.47
2018-05-06T07:00:06.959Z,41.23
2018-05-06T07:02:36.081Z,42.43
2018-05-06T07:05:05.361Z,42.50
2018-05-06T07:07:35.237Z,42.33
2018-05-06T07:10:04.432Z,43.13
2018-05-06T07:12:33.623Z,42.13
2018-05-06T07:15:02.824Z,43.10
2018-05-06T07:17:31.985Z,42.10
2018-05-06T07:20:01.105Z,40.10
2018-05-06T07:22:30.908Z,39.90
2018-05-06T07:25:00.441Z,39.47
2018-05-06T07:27:29.542Z,39.13
2018-05-06T07:29:59.521Z,39.23
2018-05-06T07:32:28.749Z,37.93
2018-05-06T07:34:57.827Z,37.73
2018-05-06T07:37:26.884Z,37.03
2018-05-06T07:39:55.966Z,38.17
2018-05-06T07:42:25.178Z,37.70
2018-05-06T07:44:54.287Z,38.10
2018-05-06T07:47:23.625Z,37.43
2018-05-06T07:49:52.819Z,39.10
2018-05-06T07:52:21.986Z,38.97
2018-05-06T07:54:51.175Z,38.60
2018-05-06T07:57:20.333Z,38.90
2018-05-06T07:59:50.217Z,37.87
2018-05-06T08:02:19.389Z,38.20
2018-05-06T08:04:48.458Z,37.53
2018-05-06T08:07:17.550Z,37.67
2018-05-06T08:09:46.731Z,38.40
2018-05-06T08:12:15.846Z,36.93
2018-05-06T08:14:44.991Z,37.73
2018-05-06T08:17:14.069Z,39.40
2018-05-06T08:19:43.168Z,38.57
2018-05-06T08:22:12.315Z,38.30
2018-05-06T08:24:41.461Z,38.53
2018-05-06T08:27:11.039Z,38.50
2018-05-06T08:29:40.154Z,40.43
2018-05-06T08:32:09.306Z,40.47
2018-05-06T08:34:38.435Z,41.40
2018-05-06T08:37:07.505Z,42.20
2018-05-06T08:39:36.664Z,41.40
2018-05-06T08:42:05.778Z,39.47
2018-05-06T08:44:34.841Z,39.17
2018-05-06T08:47:03.969Z,40.73
2018-05-06T08:49:33.043Z,40.03
2018-05-06T08:52:02.153Z,40.43
2018-05-06T08:54:32.137Z,38.83
2018-05-06T08:57:01.288Z,42.37
2018-05-06T08:59:30.458Z,42.50
2018-05-06T09:01:59.577Z,41.17
2018-05-06T09:04:28.793Z,42.43
2018-05-06T09:06:57.944Z,39.80
2018-05-06T09:09:27.830Z,41.47
2018-05-06T09:11:56.995Z,39.57
2018-05-06T09:14:26.185Z,37.23
2018-05-06T09:16:55.463Z,37.77
2018-05-06T09:19:24.619Z,38.87
2018-05-06T09:21:53.786Z,38.83
2018-05-06T09:24:22.889Z,40.77
2018-05-06T09:26:52.025Z,38.80
2018-05-06T09:29:22.177Z,42.90
2018-05-06T09:31:51.289Z,45.33
2018-05-06T09:34:20.581Z,43.53
2018-05-06T09:36:49.798Z,45.57
2018-05-06T09:39:18.929Z,44.93
2018-05-06T09:41:48.004Z,47.57
2018-05-06T09:44:17.141Z,48.07
2018-05-06T09:46:46.367Z,46.83
2018-05-06T09:49:15.459Z,45.03
2018-05-06T09:51:44.777Z,43.97
2018-05-06T09:54:14.086Z,45.30
2018-05-06T09:56:43.181Z,44.57
2018-05-06T09:59:12.393Z,38.70
2018-05-06T10:01:41.506Z,40.23
2018-05-06T10:04:10.625Z,38.33
2018-05-06T10:06:39.716Z,35.10
2018-05-06T10:09:08.779Z,33.30
2018-05-06T10:11:37.972Z,34.47
2018-05-06T10:14:07.110Z,34.27
2018-05-06T10:16:36.212Z,33.27
2018-05-06T10:19:05.340Z,30.87
2018-05-06T10:21:34.448Z,33.03
2018-05-06T10:24:04.427Z,31.37
2018-05-06T10:26:33.645Z,30.50
2018-05-06T10:29:03.569Z,28.10
2018-05-06T10:31:34.270Z,28.00
2018-05-06T10:34:04.377Z,27.07
2018-05-06T10:36:33.481Z,27.10
2018-05-06T10:39:02.637Z,26.73
2018-05-06T10:41:31.785Z,24.33
2018-05-06T10:44:00.986Z,26.50
2018-05-06T10:46:30.076Z,24.90
2018-05-06T10:48:59.309Z,24.07
2018-05-06T10:51:28.532Z,24.17
2018-05-06T10:53:57.645Z,22.77
2018-05-06T10:56:27.169Z,22.80
2018-05-06T10:58:56.293Z,21.33
2018-05-06T11:01:25.343Z,20.67
2018-05-06T11:03:54.466Z,21.30
2018-05-06T11:06:23.579Z,20.23
2018-05-06T11:08:52.875Z,19.93
2018-05-06T11:11:22.050Z,19.67
2018-05-06T11:13:51.107Z,20.90
2018-05-06T11:16:20.192Z,22.03
2018-05-06T11:18:49.335Z,21.03
2018-05-06T11:21:18.480Z,23.13
2018-05-06T11:23:47.776Z,24.53
2018-05-06T11:26:17.659Z,26.10
2018-05-06T11:28:47.024Z,25.90
2018-05-06T11:31:16.097Z,27.63
2018-05-06T11:33:45.649Z,28.23
2018-05-06T11:36:14.826Z,25.43
2018-05-06T11:38:43.870Z,26.13
2018-05-06T11:41:13.388Z,24.90
2018-05-06T11:43:42.519Z,27.27
2018-05-06T11:46:11.656Z,27.43
2018-05-06T11:48:40.799Z,27.83
2018-05-06T11:51:09.955Z,28.90
2018-05-06T11:53:39.100Z,30.00
2018-05-06T11:56:08.245Z,52.33
2018-05-06T11:58:37.368Z,39.23
2018-05-06T12:01:07.261Z,31.10
2018-05-06T12:03:36.455Z,26.47
2018-05-06T12:06:05.548Z,23.20
2018-05-06T12:08:34.845Z,20.23
2018-05-06T12:11:04.684Z,19.93
2018-05-06T12:13:33.862Z,19.60
2018-05-06T12:16:03.598Z,23.03
2018-05-06T12:18:33.704Z,24.90
2018-05-06T12:21:04.538Z,29.87
2018-05-06T12:23:33.772Z,37.97
2018-05-06T12:26:02.895Z,44.63
2018-05-06T12:28:31.987Z,51.10
2018-05-06T12:31:01.091Z,53.97
2018-05-06T12:33:31.188Z,53.57
2018-05-06T12:36:01.790Z,47.80
2018-05-06T12:38:31.036Z,41.53
2018-05-06T12:41:00.139Z,32.67
2018-05-06T12:43:29.354Z,29.53
2018-05-06T12:45:58.623Z,21.40
2018-05-06T12:48:27.724Z,18.03
2018-05-06T12:50:56.923Z,15.07
2018-05-06T12:53:26.792Z,14.90
2018-05-06T12:55:56.859Z,15.33
2018-05-06T12:58:26.005Z,16.00
2018-05-06T13:00:55.802Z,18.93
2018-05-06T13:03:24.931Z,20.07
2018-05-06T13:05:54.918Z,18.33
2018-05-06T13:08:24.157Z,16.53
2018-05-06T13:10:54.362Z,15.60
2018-05-06T13:13:38.096Z,19.23
2018-05-06T13:16:07.345Z,14.20
2018-05-06T13:18:36.487Z,13.80
2018-05-06T13:21:10.675Z,16.57
2018-05-06T13:23:41.205Z,15.73
2018-05-06T13:26:10.431Z,15.30
2018-05-06T13:28:40.883Z,17.80
2018-05-06T13:31:10.007Z,18.17
2018-05-06T13:33:39.104Z,16.73
2018-05-06T13:36:08.411Z,16.23
2018-05-06T13:38:39.225Z,17.10
2018-05-06T13:41:09.311Z,16.30
2018-05-06T13:43:38.548Z,19.20
2018-05-06T13:46:07.690Z,20.27
2018-05-06T13:48:36.878Z,19.63
2018-05-06T13:51:06.039Z,18.50
2018-05-06T13:53:35.296Z,19.30
2018-05-06T13:56:04.497Z,20.90
2018-05-06T13:58:33.622Z,17.50
2018-05-06T14:01:02.812Z,17.87
2018-05-06T14:03:31.925Z,22.30
2018-05-06T14:06:01.019Z,20.07
2018-05-06T14:08:30.245Z,18.47
2018-05-06T14:10:59.490Z,19.77
2018-05-06T14:13:29.372Z,20.30
2018-05-06T14:16:01.458Z,19.03
2018-05-06T14:18:30.662Z,19.33
2018-05-06T14:21:00.597Z,18.80
2018-05-06T14:23:29.831Z,16.87
2018-05-06T14:25:59.946Z,19.43
2018-05-06T14:28:29.139Z,19.47
2018-05-06T14:30:59.928Z,21.50
2018-05-06T14:33:29.961Z,21.40
2018-05-06T14:35:59.171Z,19.70
2018-05-06T14:38:28.991Z,20.77
2018-05-06T14:40:58.849Z,20.47
2018-05-06T14:43:28.459Z,19.53
2018-05-06T14:45:57.608Z,19.03
2018-05-06T14:48:26.785Z,17.70
2018-05-06T14:50:56.785Z,19.10
2018-05-06T14:53:25.935Z,19.23
2018-05-06T14:55:55.074Z,19.47
2018-05-06T14:58:24.302Z,19.97
2018-05-06T15:00:53.395Z,20.37
2018-05-06T15:03:22.509Z,19.50
2018-05-06T15:05:51.645Z,22.30
2018-05-06T15:08:21.543Z,21.80
2018-05-06T15:10:52.344Z,19.63
2018-05-06T15:13:21.749Z,19.07
2018-05-06T15:15:50.936Z,19.00
2018-05-06T15:18:27.921Z,19.13
2018-05-06T15:20:57.057Z,19.70
2018-05-06T15:23:27.028Z,18.87
2018-05-06T15:25:56.150Z,19.87
2018-05-06T15:28:25.440Z,20.47
2018-05-06T15:30:55.469Z,19.63
2018-05-06T15:33:26.232Z,19.67
2018-05-06T15:35:55.356Z,19.63
2018-05-06T15:38:25.588Z,20.13
2018-05-06T15:40:55.713Z,21.43
2018-05-06T15:43:25.209Z,18.20
2018-05-06T15:45:54.440Z,19.97
2018-05-06T15:48:23.614Z,18.23
2018-05-06T15:50:53.607Z,16.90
2018-05-06T15:53:22.817Z,17.67
2018-05-06T15:55:52.015Z,19.47
2018-05-06T15:58:21.392Z,18.73
2018-05-06T16:00:51.433Z,20.17
2018-05-06T16:03:32.139Z,17.53
2018-05-06T16:06:01.461Z,15.47
2018-05-06T16:08:31.340Z,16.47
2018-05-06T16:11:00.494Z,16.07
2018-05-06T16:13:29.613Z,16.30
2018-05-06T16:15:59.812Z,16.23
2018-05-06T16:18:38.760Z,15.60
2018-05-06T16:21:07.857Z,14.50
2018-05-06T16:23:37.062Z,14.97
2018-05-06T16:26:06.178Z,15.13
2018-05-06T16:28:35.417Z,13.17
2018-05-06T16:31:04.594Z,13.93
2018-05-06T16:33:33.933Z,12.00
2018-05-06T16:36:04.623Z,12.57
2018-05-06T16:38:34.827Z,13.07
2018-05-06T16:41:05.843Z,12.67
2018-05-06T16:43:35.073Z,10.40
2018-05-06T16:46:05.824Z,8.80
2018-05-06T16:48:35.105Z,8.83
2018-05-06T16:51:04.501Z,8.43
2018-05-06T16:53:37.957Z,8.80
2018-05-06T16:56:07.180Z,9.40
2018-05-06T16:58:37.922Z,8.60
2018-05-06T17:01:07.179Z,10.23
2018-05-06T17:03:36.548Z,6.97
2018-05-06T17:06:06.259Z,8.77
2018-05-06T17:08:35.389Z,9.57
2018-05-06T17:11:04.564Z,7.93
2018-05-06T17:13:33.889Z,7.37
2018-05-06T17:16:03.091Z,8.67
2018-05-06T17:18:32.296Z,7.43
2018-05-06T17:21:01.409Z,9.37
2018-05-06T17:23:30.570Z,8.77
2018-05-06T17:25:59.783Z,12.50
2018-05-06T17:28:28.903Z,8.60
2018-05-06T17:30:58.072Z,8.57
2018-05-06T17:33:28.281Z,9.00
2018-05-06T17:35:57.451Z,9.50
2018-05-06T17:38:26.578Z,9.63
2018-05-06T17:40:56.639Z,9.63
2018-05-06T17:43:26.213Z,9.50
2018-05-06T17:45:56.330Z,9.67
2018-05-06T17:48:25.457Z,9.53
2018-05-06T17:50:54.581Z,10.20
2018-05-06T17:53:26.800Z,10.13
2018-05-06T17:55:56.203Z,8.53
2018-05-06T17:58:25.623Z,9.07
2018-05-06T18:00:54.884Z,9.37
2018-05-06T18:03:24.102Z,8.70
2018-05-06T18:05:53.262Z,8.97
2018-05-06T18:08:22.413Z,10.90
2018-05-06T18:10:51.523Z,10.13
2018-05-06T18:13:20.728Z,11.17
2018-05-06T18:15:50.369Z,12.30
2018-05-06T18:18:19.517Z,10.33
2018-05-06T18:20:49.408Z,10.87
2018-05-06T18:23:18.574Z,12.43
2018-05-06T18:25:47.741Z,11.23
2018-05-06T18:28:16.932Z,11.37
2018-05-06T18:30:46.054Z,11.10
2018-05-06T18:33:15.383Z,11.30
2018-05-06T18:35:46.404Z,11.50
2018-05-06T18:38:16.122Z,11.10
2018-05-06T18:40:46.106Z,12.17
2018-05-06T18:43:15.255Z,11.80
2018-05-06T18:45:44.405Z,10.70
2018-05-06T18:48:13.599Z,10.60
2018-05-06T18:50:42.772Z,11.50
2018-05-06T18:53:11.907Z,11.83
2018-05-06T18:55:41.133Z,16.00
2018-05-06T18:58:10.701Z,14.70
2018-05-06T19:00:40.601Z,15.50
2018-05-06T19:03:11.675Z,12.20
2018-05-06T19:05:41.742Z,13.70
2018-05-06T19:08:11.102Z,14.63
2018-05-06T19:10:40.225Z,15.90
2018-05-06T19:13:09.403Z,14.03
2018-05-06T19:15:38.666Z,20.80
2018-05-06T19:18:07.870Z,14.50
2018-05-06T19:20:37.857Z,13.63
2018-05-06T19:23:08.804Z,13.17
2018-05-06T19:25:38.490Z,12.73
2018-05-06T19:28:07.687Z,12.27
2018-05-06T19:30:37.534Z,12.37
2018-05-06T19:33:06.711Z,13.37
2018-05-06T19:35:35.966Z,14.23
2018-05-06T19:38:05.163Z,12.90
2018-05-06T19:40:34.324Z,13.93
2018-05-06T19:43:04.538Z,13.10
2018-05-06T19:45:33.812Z,11.77
2018-05-06T19:48:02.981Z,12.10
2018-05-06T19:50:32.164Z,12.20
2018-05-06T19:53:01.484Z,11.10
2018-05-06T19:55:30.869Z,12.47
2018-05-06T19:58:00.314Z,10.73
2018-05-06T20:00:30.237Z,12.13
2018-05-06T20:02:59.358Z,11.43
2018-05-06T20:05:28.576Z,14.33
2018-05-06T20:07:57.777Z,12.70
2018-05-06T20:10:28.031Z,14.70
2018-05-06T20:12:58.043Z,13.60
2018-05-06T20:15:27.359Z,10.83
2018-05-06T20:17:56.549Z,13.27
2018-05-06T20:20:25.706Z,11.00
2018-05-06T20:22:54.971Z,11.93
2018-05-06T20:25:24.630Z,10.47
2018-05-06T20:27:53.775Z,10.63
2018-05-06T20:30:22.948Z,10.17
2018-05-06T20:32:52.019Z,11.07
2018-05-06T20:35:21.211Z,9.90
2018-05-06T20:37:50.357Z,9.63
2018-05-06T20:40:19.494Z,10.63
2018-05-06T20:42:48.608Z,10.13
2018-05-06T20:45:17.714Z,11.50
2018-05-06T20:47:46.876Z,9.87
2018-05-06T20:50:15.981Z,10.23
2018-05-06T20:52:45.137Z,9.47
2018-05-06T20:55:14.355Z,10.37
2018-05-06T20:57:43.420Z,9.97
2018-05-06T21:00:13.302Z,11.10
2018-05-06T21:02:42.506Z,9.60
2018-05-06T21:05:11.601Z,9.73
2018-05-06T21:07:40.821Z,9.60
2018-05-06T21:10:10.035Z,10.70
2018-05-06T21:12:39.108Z,10.93
2018-05-06T21:15:08.261Z,10.33
2018-05-06T21:17:37.376Z,11.27
2018-05-06T21:20:06.699Z,10.97
2018-05-06T21:22:35.853Z,8.40
2018-05-06T21:25:05.708Z,8.90
2018-05-06T21:27:36.516Z,7.80
2018-05-06T21:30:05.724Z,8.97
2018-05-06T21:32:34.787Z,8.40
2018-05-06T21:35:03.962Z,9.27
2018-05-06T21:37:33.120Z,10.23
2018-05-06T21:40:02.254Z,10.53
2018-05-06T21:42:32.368Z,8.53
2018-05-06T21:45:01.519Z,9.23
2018-05-06T21:47:31.580Z,9.30
2018-05-06T21:50:00.787Z,12.40
2018-05-06T21:52:29.953Z,8.47
2018-05-06T21:54:59.155Z,8.27
2018-05-06T21:57:28.311Z,7.90
2018-05-06T21:59:57.564Z,8.37
2018-05-06T22:02:26.765Z,9.57
2018-05-06T22:04:55.935Z,9.10
2018-05-06T22:07:25.131Z,10.07
2018-05-06T22:09:54.262Z,10.27
2018-05-06T22:12:24.691Z,8.97
2018-05-06T22:14:53.926Z,13.70
2018-05-06T22:17:23.124Z,9.73
2018-05-06T22:19:52.217Z,9.20
2018-05-06T22:22:21.311Z,8.80
2018-05-06T22:24:50.440Z,7.90
2018-05-06T22:27:19.613Z,10.03
2018-05-06T22:29:51.608Z,9.07
2018-05-06T22:32:20.729Z,8.90
2018-05-06T22:34:49.818Z,8.73
2018-05-06T22:37:19.009Z,10.03
2018-05-06T22:39:48.182Z,10.37
2018-05-06T22:42:17.320Z,9.93
2018-05-06T22:44:46.544Z,14.87
2018-05-06T22:47:15.748Z,9.77
2018-05-06T22:49:44.887Z,10.20
2018-05-06T22:52:13.992Z,11.63
2018-05-06T22:54:43.132Z,11.03
2018-05-06T22:57:16.050Z,11.53
2018-05-06T22:59:45.158Z,10.80
2018-05-06T23:02:14.347Z,11.67
2018-05-06T23:04:43.520Z,11.10
2018-05-06T23:07:12.619Z,11.10
2018-05-06T23:09:41.721Z,10.37
2018-05-06T23:12:16.521Z,10.97
2018-05-06T23:14:48.638Z,10.57
2018-05-06T23:17:17.831Z,9.20
2018-05-06T23:19:46.924Z,9.13
2018-05-06T23:22:16.093Z,11.87
2018-05-06T23:24:45.411Z,11.53
2018-05-06T23:27:14.587Z,10.70
2018-05-06T23:29:43.652Z,10.87
2018-05-06T23:32:13.207Z,11.47
2018-05-06T23:34:42.421Z,11.50
2018-05-06T23:37:12.431Z,11.50
2018-05-06T23:39:41.573Z,12.30
2018-05-06T23:42:10.818Z,10.83
2018-05-06T23:44:40.213Z,12.03
2018-05-06T23:47:09.497Z,13.20
2018-05-06T23:49:38.671Z,13.67
2018-05-06T23:52:07.835Z,12.13
2018-05-06T23:54:36.953Z,11.60
2018-05-06T23:57:06.098Z,12.27
2018-05-06T23:59:35.286Z,13.40
